createdAt,value
2022-10-11T00:00:12.051Z,15.80
2022-10-11T00:02:38.976Z,16.83
2022-10-11T00:05:06.632Z,14.50
2022-10-11T00:07:33.677Z,15.43
2022-10-11T00:10:00.686Z,25.77
2022-10-11T00:12:27.640Z,15.63
2022-10-11T00:14:54.596Z,15.13
2022-10-11T00:17:21.617Z,14.73
2022-10-11T00:19:48.557Z,13.43
2022-10-11T00:22:15.519Z,15.73
2022-10-11T00:24:42.655Z,17.27
2022-10-11T00:27:09.663Z,15.87
2022-10-11T00:29:38.306Z,18.20
2022-10-11T00:32:06.109Z,12.93
2022-10-11T00:34:33.138Z,18.83
2022-10-11T00:37:00.054Z,19.47
2022-10-11T00:39:26.972Z,13.53
2022-10-11T00:41:54.344Z,17.70
2022-10-11T00:44:28.167Z,12.13
2022-10-11T00:47:15.426Z,15.63
2022-10-11T00:49:45.830Z,15.53
2022-10-11T00:52:21.709Z,16.17
2022-10-11T00:54:50.085Z,15.57
2022-10-11T00:57:25.137Z,14.03
2022-10-11T00:59:56.170Z,15.13
2022-10-11T01:02:24.601Z,13.27
2022-10-11T01:05:11.378Z,15.53
2022-10-11T01:07:40.718Z,16.73
2022-10-11T01:10:08.069Z,17.67
2022-10-11T01:12:36.349Z,17.27
2022-10-11T01:15:17.425Z,13.40
2022-10-11T01:18:33.357Z,13.50
2022-10-11T01:21:33.030Z,15.47
2022-10-11T01:24:12.055Z,17.30
2022-10-11T01:27:02.306Z,13.93
2022-10-11T01:29:53.461Z,16.87
2022-10-11T01:32:53.647Z,15.03
2022-10-11T01:36:06.377Z,20.80
2022-10-11T01:38:56.690Z,13.37
2022-10-11T01:41:33.751Z,14.67
2022-10-11T01:44:02.369Z,20.97
2022-10-11T01:46:30.576Z,15.77
2022-10-11T01:49:01.146Z,13.90
2022-10-11T01:51:47.508Z,12.77
2022-10-11T01:55:09.977Z,17.40
2022-10-11T01:58:04.769Z,16.03
2022-10-11T02:01:09.284Z,15.20
2022-10-11T02:04:25.366Z,13.63
2022-10-11T02:07:08.689Z,15.17
2022-10-11T02:09:53.774Z,16.77
2022-10-11T02:12:38.449Z,19.07
2022-10-11T02:15:10.612Z,16.40
2022-10-11T02:17:45.525Z,16.13
2022-10-11T02:20:19.007Z,21.07
2022-10-11T02:22:49.973Z,15.77
2022-10-11T02:25:25.199Z,13.10
2022-10-11T02:27:57.281Z,13.87
2022-10-11T02:30:24.205Z,17.40
2022-10-11T02:32:53.041Z,16.20
2022-10-11T02:35:25.195Z,16.90
2022-10-11T02:37:59.347Z,15.30
2022-10-11T02:40:41.475Z,16.60
2022-10-11T02:43:39.519Z,17.97
2022-10-11T02:46:09.205Z,18.77
2022-10-11T02:48:37.479Z,20.47
2022-10-11T02:51:05.300Z,19.17
2022-10-11T02:53:33.594Z,16.80
2022-10-11T02:56:00.533Z,18.10
2022-10-11T02:58:27.495Z,13.40
2022-10-11T03:00:54.431Z,14.67
2022-10-11T03:03:21.349Z,19.47
2022-10-11T03:05:49.032Z,14.00
2022-10-11T03:08:17.431Z,15.27
2022-10-11T03:10:44.623Z,19.83
2022-10-11T03:13:15.963Z,14.80
2022-10-11T03:16:02.385Z,18.27
2022-10-11T03:18:30.751Z,16.07
2022-10-11T03:20:57.745Z,23.57
2022-10-11T03:23:24.693Z,20.23
2022-10-11T03:25:52.217Z,18.87
2022-10-11T03:28:19.801Z,15.97
2022-10-11T03:30:51.274Z,18.47
2022-10-11T03:33:18.742Z,15.53
2022-10-11T03:35:47.241Z,18.50
2022-10-11T03:38:20.807Z,21.37
2022-10-11T03:40:48.370Z,15.77
2022-10-11T03:43:15.572Z,14.30
2022-10-11T03:45:42.634Z,21.70
2022-10-11T03:48:10.700Z,17.37
2022-10-11T03:50:38.187Z,18.80
2022-10-11T03:53:06.959Z,19.47
2022-10-11T03:55:34.129Z,18.63
2022-10-11T03:58:01.137Z,17.90
2022-10-11T04:00:28.146Z,15.47
2022-10-11T04:02:55.082Z,16.47
2022-10-11T04:05:22.056Z,18.97
2022-10-11T04:07:49.085Z,14.50
2022-10-11T04:10:16.116Z,18.17
2022-10-11T04:12:43.820Z,17.40
2022-10-11T04:15:13.428Z,21.23
2022-10-11T04:17:41.304Z,21.33
2022-10-11T04:20:09.255Z,17.17
2022-10-11T04:22:36.384Z,21.80
2022-10-11T04:25:03.607Z,15.43
2022-10-11T04:27:30.765Z,16.03
2022-10-11T04:29:57.716Z,18.87
2022-10-11T04:32:24.719Z,17.23
2022-10-11T04:34:51.717Z,16.43
2022-10-11T04:37:19.276Z,20.97
2022-10-11T04:39:46.175Z,22.03
2022-10-11T04:42:13.221Z,16.63
2022-10-11T04:44:40.183Z,19.77
2022-10-11T04:47:07.139Z,18.90
2022-10-11T04:49:34.080Z,15.80
2022-10-11T04:52:01.154Z,23.33
2022-10-11T04:54:28.066Z,18.57
2022-10-11T04:56:55.064Z,17.43
2022-10-11T04:59:21.968Z,20.57
2022-10-11T05:01:49.038Z,19.20
2022-10-11T05:04:16.076Z,20.57
2022-10-11T05:06:43.274Z,23.67
2022-10-11T05:09:10.286Z,19.90
2022-10-11T05:11:37.281Z,24.77
2022-10-11T05:14:04.258Z,21.37
2022-10-11T05:16:31.211Z,17.20
2022-10-11T05:18:58.170Z,23.07
2022-10-11T05:21:28.259Z,23.03
2022-10-11T05:23:56.757Z,22.93
2022-10-11T05:26:27.744Z,22.63
2022-10-11T05:28:55.603Z,20.33
2022-10-11T05:31:22.691Z,23.53
2022-10-11T05:33:50.033Z,21.53
2022-10-11T05:36:17.270Z,20.53
2022-10-11T05:38:44.764Z,18.97
2022-10-11T05:41:14.968Z,20.27
2022-10-11T05:43:42.335Z,27.03
2022-10-11T05:46:09.425Z,23.20
2022-10-11T05:48:36.710Z,21.27
2022-10-11T05:51:06.682Z,25.57
2022-10-11T05:53:34.172Z,22.97
2022-10-11T05:56:01.106Z,22.95
2022-10-11T05:58:28.638Z,20.83
2022-10-11T06:00:56.962Z,24.43
2022-10-11T06:03:24.331Z,21.40
2022-10-11T06:05:55.768Z,20.83
2022-10-11T06:08:23.813Z,22.83
2022-10-11T06:10:50.981Z,24.27
2022-10-11T06:13:18.535Z,28.30
2022-10-11T06:15:45.465Z,20.33
2022-10-11T06:18:12.372Z,18.23
2022-10-11T06:20:39.306Z,24.58
2022-10-11T06:23:06.315Z,20.08
2022-10-11T06:25:33.285Z,20.35
2022-10-11T06:28:00.225Z,19.80
2022-10-11T06:30:27.246Z,23.80
2022-10-11T06:32:54.224Z,24.75
2022-10-11T06:35:21.185Z,20.75
2022-10-11T06:37:48.075Z,19.65
2022-10-11T06:40:15.190Z,25.67
2022-10-11T06:42:42.115Z,23.08
2022-10-11T06:45:09.584Z,20.13
2022-10-11T06:47:36.490Z,22.23
2022-10-11T06:50:03.727Z,21.83
2022-10-11T06:52:30.653Z,19.35
2022-10-11T06:54:57.600Z,24.58
2022-10-11T06:57:24.546Z,18.33
2022-10-11T06:59:51.555Z,21.20
2022-10-11T07:02:18.451Z,27.35
2022-10-11T07:04:45.385Z,28.92
2022-10-11T07:07:15.223Z,28.35
2022-10-11T07:09:42.209Z,30.15
2022-10-11T07:12:09.303Z,28.30
2022-10-11T07:14:36.324Z,27.08
2022-10-11T07:17:03.569Z,26.40
2022-10-11T07:19:30.623Z,27.77
2022-10-11T07:21:57.783Z,23.08
2022-10-11T07:24:24.866Z,25.95
2022-10-11T07:26:51.815Z,28.20
2022-10-11T07:29:18.878Z,30.67
2022-10-11T07:31:45.906Z,30.95
2022-10-11T07:34:13.128Z,34.00
2022-10-11T07:36:40.309Z,28.95
2022-10-11T07:39:08.843Z,32.22
2022-10-11T07:41:38.850Z,33.03
2022-10-11T07:44:07.656Z,43.58
2022-10-11T07:46:34.603Z,27.60
2022-10-11T07:49:01.537Z,34.95
2022-10-11T07:51:28.493Z,29.40
2022-10-11T07:53:56.949Z,34.53
2022-10-11T07:56:29.161Z,36.28
2022-10-11T07:59:00.299Z,28.95
2022-10-11T08:01:28.651Z,33.38
2022-10-11T08:03:58.961Z,23.80
2022-10-11T08:06:31.736Z,20.38
2022-10-11T08:09:01.167Z,26.08
2022-10-11T08:11:35.401Z,24.10
2022-10-11T08:14:08.507Z,20.65
2022-10-11T08:16:37.244Z,27.10
2022-10-11T08:19:05.192Z,22.58
2022-10-11T08:21:33.015Z,16.38
2022-10-11T08:24:01.595Z,19.27
2022-10-11T08:26:28.641Z,20.17
2022-10-11T08:28:55.666Z,23.75
2022-10-11T08:31:22.789Z,16.67
2022-10-11T08:33:49.768Z,19.40
2022-10-11T08:36:16.762Z,29.15
2022-10-11T08:38:43.981Z,18.50
2022-10-11T08:41:37.232Z,23.67
2022-10-11T08:44:28.051Z,18.00
2022-10-11T08:47:15.765Z,13.07
2022-10-11T08:49:42.985Z,20.20
2022-10-11T08:52:24.607Z,16.30
2022-10-11T08:55:10.169Z,17.73
2022-10-11T08:57:39.124Z,19.35
2022-10-11T09:00:14.489Z,14.40
2022-10-11T09:03:10.949Z,11.77
2022-10-11T09:06:13.297Z,16.38
2022-10-11T09:09:20.392Z,21.25
2022-10-11T09:12:10.729Z,11.60
2022-10-11T09:14:56.589Z,14.70
2022-10-11T09:17:40.157Z,12.90
2022-10-11T09:20:34.020Z,19.83
2022-10-11T09:23:31.811Z,19.48
2022-10-11T09:26:35.283Z,13.80
2022-10-11T09:29:22.744Z,19.17
2022-10-11T09:31:55.951Z,13.93
2022-10-11T09:34:32.355Z,14.48
2022-10-11T09:37:35.394Z,12.50
2022-10-11T09:40:48.538Z,12.32
2022-10-11T09:43:15.471Z,13.10
2022-10-11T09:45:49.241Z,12.65
2022-10-11T09:48:27.352Z,15.52
2022-10-11T09:51:05.149Z,16.48
2022-10-11T09:53:56.038Z,18.27
2022-10-11T09:56:27.555Z,21.77
2022-10-11T09:59:19.543Z,13.80
2022-10-11T10:01:46.707Z,25.15
2022-10-11T10:04:19.303Z,17.35
2022-10-11T10:06:46.284Z,16.05
2022-10-11T10:09:30.155Z,15.82
2022-10-11T10:11:58.147Z,9.05
2022-10-11T10:14:30.711Z,10.95
2022-10-11T10:17:15.664Z,13.07
2022-10-11T10:19:56.760Z,13.27
2022-10-11T10:22:35.751Z,6.10
2022-10-11T10:25:08.081Z,10.88
2022-10-11T10:27:35.294Z,11.85
2022-10-11T10:30:08.035Z,10.48
2022-10-11T10:33:07.137Z,11.77
2022-10-11T10:35:46.903Z,8.93
2022-10-11T10:38:52.175Z,12.10
2022-10-11T10:41:19.578Z,7.32
2022-10-11T10:43:55.745Z,6.90
2022-10-11T10:46:58.807Z,9.18
2022-10-11T10:49:55.383Z,8.73
2022-10-11T10:52:48.163Z,7.05
2022-10-11T10:55:37.561Z,11.38
2022-10-11T10:58:07.424Z,4.78
2022-10-11T11:00:46.197Z,14.07
2022-10-11T11:03:44.869Z,6.72
2022-10-11T11:06:50.897Z,8.95
2022-10-11T11:09:43.722Z,7.75
2022-10-11T11:12:56.918Z,5.22
2022-10-11T11:15:43.198Z,3.50
2022-10-11T11:18:35.907Z,9.43
2022-10-11T11:21:24.085Z,5.38
2022-10-11T11:24:17.186Z,6.32
2022-10-11T11:27:11.622Z,5.05
2022-10-11T11:30:04.770Z,17.83
2022-10-11T11:32:49.683Z,10.40
2022-10-11T11:35:44.009Z,15.25
2022-10-11T11:38:29.818Z,4.90
2022-10-11T11:41:05.258Z,5.25
2022-10-11T11:43:39.498Z,6.90
2022-10-11T11:46:25.155Z,7.10
2022-10-11T11:48:54.365Z,8.48
2022-10-11T11:51:41.119Z,10.32
2022-10-11T11:54:35.001Z,12.40
2022-10-11T11:57:35.909Z,12.88
2022-10-11T12:00:12.803Z,10.30
2022-10-11T12:02:58.949Z,9.65
2022-10-11T12:05:33.880Z,9.48
2022-10-11T12:08:31.801Z,9.20
2022-10-11T12:11:02.480Z,8.65
2022-10-11T12:13:37.090Z,5.57
2022-10-11T12:16:09.682Z,14.30
2022-10-11T12:19:01.135Z,10.52
2022-10-11T12:21:40.339Z,7.90
2022-10-11T12:24:23.815Z,12.27
2022-10-11T12:26:57.929Z,9.25
2022-10-11T12:29:50.996Z,13.20
2022-10-11T12:32:26.952Z,16.00
2022-10-11T12:35:31.793Z,8.63
2022-10-11T12:38:25.692Z,10.40
2022-10-11T12:41:09.739Z,14.60
2022-10-11T12:44:24.777Z,22.27
2022-10-11T12:46:53.561Z,11.77
2022-10-11T12:49:42.639Z,9.20
2022-10-11T12:52:28.421Z,12.65
2022-10-11T12:55:29.881Z,19.33
2022-10-11T12:58:09.215Z,11.98
2022-10-11T13:00:51.110Z,11.35
2022-10-11T13:03:39.619Z,11.38
2022-10-11T13:06:27.047Z,9.77
2022-10-11T13:09:03.941Z,9.27
2022-10-11T13:11:36.853Z,8.45
2022-10-11T13:14:22.985Z,8.55
2022-10-11T13:17:19.448Z,10.45
2022-10-11T13:19:50.846Z,7.95
2022-10-11T13:22:22.843Z,13.25
2022-10-11T13:24:50.095Z,10.38
2022-10-11T13:27:27.310Z,9.27
2022-10-11T13:30:00.476Z,12.48
2022-10-11T13:32:31.083Z,30.20
2022-10-11T13:35:07.320Z,29.52
2022-10-11T13:37:45.285Z,34.83
2022-10-11T13:40:19.957Z,35.92
2022-10-11T13:42:49.386Z,16.45
2022-10-11T13:45:23.716Z,16.33
2022-10-11T13:47:52.909Z,11.30
2022-10-11T13:50:32.398Z,15.13
2022-10-11T13:53:08.310Z,18.88
2022-10-11T13:55:55.996Z,17.65
2022-10-11T13:58:40.278Z,11.85
2022-10-11T14:01:20.022Z,10.45
2022-10-11T14:04:00.835Z,14.27
2022-10-11T14:06:58.083Z,5.05
2022-10-11T14:09:37.275Z,8.35
2022-10-11T14:12:35.642Z,8.80
2022-10-11T14:15:26.061Z,8.77
2022-10-11T14:17:53.370Z,11.55
2022-10-11T14:20:30.887Z,7.25
2022-10-11T14:23:00.203Z,11.10
2022-10-11T14:25:27.205Z,4.93
2022-10-11T14:27:55.120Z,7.45
2022-10-11T14:30:26.628Z,10.30
2022-10-11T14:32:58.027Z,13.60
2022-10-11T14:35:28.046Z,9.63
2022-10-11T14:37:55.137Z,8.68
2022-10-11T14:40:26.169Z,13.18
2022-10-11T14:42:53.343Z,14.32
2022-10-11T14:45:21.384Z,12.18
2022-10-11T14:47:48.582Z,8.52
2022-10-11T14:50:42.530Z,13.88
2022-10-11T14:53:10.652Z,8.88
2022-10-11T14:55:39.520Z,9.02
2022-10-11T14:58:09.048Z,9.93
2022-10-11T15:00:37.117Z,9.45
2022-10-11T15:03:05.241Z,7.57
2022-10-11T15:05:34.275Z,7.47
2022-10-11T15:08:06.124Z,11.10
2022-10-11T15:10:41.546Z,10.35
2022-10-11T15:13:09.419Z,9.57
2022-10-11T15:15:40.963Z,9.10
2022-10-11T15:18:12.525Z,14.43
2022-10-11T15:20:43.594Z,11.10
2022-10-11T15:23:12.199Z,17.00
2022-10-11T15:25:40.907Z,11.93
2022-10-11T15:28:19.764Z,9.88
2022-10-11T15:30:46.729Z,12.60
2022-10-11T15:33:13.668Z,14.38
2022-10-11T15:35:40.619Z,10.00
2022-10-11T15:38:16.119Z,11.23
2022-10-11T15:40:43.440Z,9.00
2022-10-11T15:43:10.391Z,15.10
2022-10-11T15:45:37.497Z,14.02
2022-10-11T15:48:04.867Z,17.88
2022-10-11T15:50:36.804Z,11.02
2022-10-11T15:53:17.863Z,22.83
2022-10-11T15:55:51.834Z,16.20
2022-10-11T15:58:40.865Z,12.80
2022-10-11T16:01:15.555Z,15.10
2022-10-11T16:03:43.270Z,16.92
2022-10-11T16:06:11.280Z,10.20
2022-10-11T16:08:38.788Z,8.27
2022-10-11T16:11:08.792Z,21.58
2022-10-11T16:13:36.300Z,19.90
2022-10-11T16:16:07.131Z,14.73
2022-10-11T16:18:35.809Z,15.63
2022-10-11T16:21:11.107Z,12.15
2022-10-11T16:23:38.946Z,9.75
2022-10-11T16:26:12.037Z,17.00
2022-10-11T16:28:39.150Z,16.40
2022-10-11T16:31:09.412Z,13.52
2022-10-11T16:33:45.678Z,11.63
2022-10-11T16:36:35.154Z,16.67
2022-10-11T16:39:15.789Z,15.65
2022-10-11T16:41:43.133Z,16.55
2022-10-11T16:44:20.195Z,15.07
2022-10-11T16:46:48.548Z,18.42
2022-10-11T16:49:23.028Z,20.92
2022-10-11T16:51:55.964Z,21.27
2022-10-11T16:54:23.088Z,22.30
2022-10-11T16:56:50.598Z,20.17
2022-10-11T16:59:18.385Z,16.90
2022-10-11T17:01:45.941Z,18.38
2022-10-11T17:04:13.856Z,17.40
2022-10-11T17:06:43.862Z,19.85
2022-10-11T17:09:12.012Z,19.40
2022-10-11T17:11:39.034Z,21.35
2022-10-11T17:14:06.556Z,16.58
2022-10-11T17:16:34.714Z,14.93
2022-10-11T17:19:02.636Z,19.17
2022-10-11T17:21:30.018Z,13.10
2022-10-11T17:23:57.473Z,19.27
2022-10-11T17:26:26.622Z,18.17
2022-10-11T17:28:56.589Z,19.42
2022-10-11T17:31:24.637Z,17.25
2022-10-11T17:33:53.201Z,22.00
2022-10-11T17:36:31.911Z,19.77
2022-10-11T17:39:06.422Z,23.10
2022-10-11T17:41:33.422Z,17.65
2022-10-11T17:44:01.812Z,24.95
2022-10-11T17:46:32.572Z,28.83
2022-10-11T17:49:06.632Z,24.35
2022-10-11T17:51:36.016Z,21.30
2022-10-11T17:54:04.022Z,17.92
2022-10-11T17:56:36.629Z,17.00
2022-10-11T17:59:05.217Z,16.70
2022-10-11T18:01:32.265Z,14.63
2022-10-11T18:04:03.078Z,21.73
2022-10-11T18:06:33.735Z,13.32
2022-10-11T18:09:03.477Z,17.30
2022-10-11T18:11:30.937Z,15.63
2022-10-11T18:13:58.078Z,22.80
2022-10-11T18:16:28.675Z,20.27
2022-10-11T18:18:57.522Z,19.77
2022-10-11T18:21:33.643Z,17.10
2022-10-11T18:24:03.533Z,16.30
2022-10-11T18:26:31.040Z,16.40
2022-10-11T18:28:59.013Z,18.42
2022-10-11T18:31:29.989Z,18.52
2022-10-11T18:33:57.635Z,14.27
2022-10-11T18:36:28.888Z,15.13
2022-10-11T18:39:00.295Z,17.67
2022-10-11T18:41:31.616Z,14.10
2022-10-11T18:44:03.315Z,14.03
2022-10-11T18:46:31.090Z,17.57
2022-10-11T18:49:01.305Z,13.53
2022-10-11T18:51:32.375Z,14.87
2022-10-11T18:53:59.933Z,14.38
2022-10-11T18:56:29.145Z,16.17
2022-10-11T18:58:58.672Z,16.73
2022-10-11T19:01:35.556Z,14.90
2022-10-11T19:04:04.556Z,13.27
2022-10-11T19:06:36.209Z,20.60
2022-10-11T19:09:07.686Z,11.00
2022-10-11T19:11:34.641Z,18.70
2022-10-11T19:14:11.072Z,23.43
2022-10-11T19:16:41.814Z,13.57
2022-10-11T19:19:11.154Z,14.18
2022-10-11T19:21:39.078Z,17.47
2022-10-11T19:24:06.536Z,21.50
2022-10-11T19:26:38.748Z,12.50
2022-10-11T19:29:10.061Z,20.40
2022-10-11T19:31:41.907Z,23.93
2022-10-11T19:34:10.315Z,18.33
2022-10-11T19:36:37.314Z,25.53
2022-10-11T19:39:06.145Z,22.67
2022-10-11T19:41:33.518Z,16.47
2022-10-11T19:44:00.525Z,14.53
2022-10-11T19:46:49.927Z,25.50
2022-10-11T19:49:17.754Z,28.37
2022-10-11T19:51:44.879Z,39.87
2022-10-11T19:54:14.401Z,21.80
2022-10-11T19:56:42.498Z,26.77
2022-10-11T19:59:12.133Z,24.70
2022-10-11T20:01:39.986Z,26.67
2022-10-11T20:04:27.380Z,29.80
2022-10-11T20:06:58.307Z,25.17
2022-10-11T20:09:29.929Z,22.20
2022-10-11T20:11:58.063Z,25.97
2022-10-11T20:14:25.535Z,23.00
2022-10-11T20:16:52.779Z,26.33
2022-10-11T20:19:21.479Z,23.63
2022-10-11T20:21:49.811Z,24.80
2022-10-11T20:24:16.736Z,31.87
2022-10-11T20:26:43.659Z,21.90
2022-10-11T20:29:10.586Z,30.30
2022-10-11T20:31:38.853Z,32.03
2022-10-11T20:34:07.312Z,27.90
2022-10-11T20:36:36.381Z,30.17
2022-10-11T20:39:05.183Z,25.70
2022-10-11T20:41:45.151Z,27.73
2022-10-11T20:44:13.236Z,27.60
2022-10-11T20:46:40.519Z,30.20
2022-10-11T20:49:12.135Z,25.23
2022-10-11T20:51:41.564Z,36.43
2022-10-11T20:54:10.609Z,32.00
2022-10-11T20:56:38.497Z,24.63
2022-10-11T20:59:06.710Z,35.63
2022-10-11T21:01:40.680Z,26.97
2022-10-11T21:04:14.450Z,29.83
2022-10-11T21:06:41.431Z,34.93
2022-10-11T21:09:10.232Z,32.13
2022-10-11T21:11:39.644Z,31.43
2022-10-11T21:14:06.809Z,32.63
2022-10-11T21:16:34.714Z,32.43
2022-10-11T21:19:02.470Z,32.20
2022-10-11T21:21:30.309Z,31.57
2022-10-11T21:24:00.357Z,34.60
2022-10-11T21:26:28.532Z,38.60
2022-10-11T21:28:55.519Z,31.17
2022-10-11T21:31:23.665Z,34.63
2022-10-11T21:33:51.054Z,32.13
2022-10-11T21:36:21.047Z,31.40
2022-10-11T21:38:49.468Z,32.80
2022-10-11T21:41:23.315Z,29.30
2022-10-11T21:43:50.579Z,35.40
2022-10-11T21:47:01.062Z,30.73
2022-10-11T21:49:19.917Z,34.93
2022-10-11T21:51:46.854Z,31.57
2022-10-11T21:54:13.930Z,30.37
2022-10-11T21:56:40.941Z,40.97
2022-10-11T21:59:11.165Z,33.87
2022-10-11T22:01:40.630Z,30.30
2022-10-11T22:04:07.883Z,32.47
2022-10-11T22:06:35.783Z,31.67
2022-10-11T22:09:03.863Z,31.90
2022-10-11T22:11:31.343Z,36.57
2022-10-11T22:13:58.878Z,37.97
2022-10-11T22:16:25.804Z,37.57
2022-10-11T22:18:54.047Z,36.07
2022-10-11T22:21:23.585Z,35.40
2022-10-11T22:23:52.971Z,34.67
2022-10-11T22:26:29.803Z,40.97
2022-10-11T22:28:58.557Z,38.43
2022-10-11T22:31:25.754Z,33.70
2022-10-11T22:33:58.868Z,40.97
2022-10-11T22:36:27.234Z,41.30
2022-10-11T22:38:54.801Z,32.80
2022-10-11T22:41:22.218Z,35.13
2022-10-11T22:43:49.411Z,36.77
2022-10-11T22:46:16.870Z,38.53
2022-10-11T22:48:43.920Z,35.90
2022-10-11T22:51:10.868Z,31.97
2022-10-11T22:53:38.408Z,37.60
2022-10-11T22:56:05.622Z,31.50
2022-10-11T22:58:32.575Z,35.47
2022-10-11T23:01:11.707Z,32.23
2022-10-11T23:03:38.784Z,34.87
2022-10-11T23:06:06.298Z,32.37
2022-10-11T23:08:33.466Z,32.23
2022-10-11T23:11:08.115Z,38.43
2022-10-11T23:13:35.813Z,38.97
2022-10-11T23:16:11.616Z,29.80
2022-10-11T23:18:39.181Z,34.57
2022-10-11T23:21:07.007Z,36.40
2022-10-11T23:23:34.805Z,39.13
2022-10-11T23:26:22.036Z,39.43
2022-10-11T23:28:53.132Z,42.80
2022-10-11T23:31:20.260Z,31.83
2022-10-11T23:33:48.468Z,36.30
2022-10-11T23:36:22.015Z,40.40
2022-10-11T23:38:54.961Z,42.23
2022-10-11T23:41:24.123Z,31.87
2022-10-11T23:43:51.385Z,40.27
2022-10-11T23:46:18.392Z,35.60
2022-10-11T23:48:45.636Z,32.90
2022-10-11T23:51:14.243Z,35.63
2022-10-11T23:53:41.528Z,31.27
2022-10-11T23:56:09.842Z,33.80
2022-10-11T23:58:36.822Z,27.20
